createdAt,value
2019-03-27T00:01:18.876Z,100435
2019-03-27T00:03:32.881Z,100434
2019-03-27T00:05:47.100Z,100435
2019-03-27T00:08:02.048Z,100434
2019-03-27T00:10:16.766Z,100442
2019-03-27T00:12:39.956Z,100440
2019-03-27T00:14:54.852Z,100436
2019-03-27T00:17:09.592Z,100434
2019-03-27T00:19:24.932Z,100432
2019-03-27T00:21:38.843Z,100433
2019-03-27T00:23:52.843Z,100430
2019-03-27T00:26:08.757Z,100433
2019-03-27T00:28:23.618Z,100434
2019-03-27T00:30:37.841Z,100438
2019-03-27T00:32:52.653Z,100434
2019-03-27T00:35:08.481Z,100435
2019-03-27T00:37:23.066Z,100429
2019-03-27T00:39:38.452Z,100432
2019-03-27T00:41:53.668Z,100434
2019-03-27T00:44:11.220Z,100428
2019-03-27T00:46:26.838Z,100423
2019-03-27T00:48:40.827Z,100427
2019-03-27T00:50:55.959Z,100432
2019-03-27T00:53:09.973Z,100429
2019-03-27T00:55:23.970Z,100432
2019-03-27T00:57:39.578Z,100425
2019-03-27T00:59:54.552Z,100427
2019-03-27T01:02:08.579Z,100431
2019-03-27T01:04:22.676Z,100439
2019-03-27T01:06:37.281Z,100432
2019-03-27T01:08:59.723Z,100435
2019-03-27T01:11:14.139Z,100430
2019-03-27T01:13:29.120Z,100430
2019-03-27T01:15:42.177Z,100426
2019-03-27T01:17:56.456Z,100426
2019-03-27T01:20:10.461Z,100423
2019-03-27T01:22:25.886Z,100421
2019-03-27T01:24:48.650Z,100425
2019-03-27T01:27:04.814Z,100424
2019-03-27T01:29:25.764Z,100421
2019-03-27T01:31:40.378Z,100413
2019-03-27T01:33:55.114Z,100413
2019-03-27T01:36:10.869Z,100416
2019-03-27T01:38:28.858Z,100416
2019-03-27T01:40:42.180Z,100415
2019-03-27T01:42:56.175Z,100417
2019-03-27T01:45:10.141Z,100417
2019-03-27T01:47:24.136Z,100418
2019-03-27T01:49:39.586Z,100412
2019-03-27T01:51:53.652Z,100418
2019-03-27T01:54:08.404Z,100418
2019-03-27T01:56:22.443Z,100420
2019-03-27T01:58:36.378Z,100420
2019-03-27T02:00:49.943Z,100424
2019-03-27T02:03:03.965Z,100424
2019-03-27T02:05:16.986Z,100429
2019-03-27T02:07:40.880Z,100431
2019-03-27T02:09:55.258Z,100432
2019-03-27T02:12:09.997Z,100436
2019-03-27T02:14:32.204Z,100432
2019-03-27T02:16:47.908Z,100435
2019-03-27T02:19:02.545Z,100429
2019-03-27T02:21:20.340Z,100434
2019-03-27T02:23:46.512Z,100428
2019-03-27T02:26:10.534Z,100430
2019-03-27T02:28:25.696Z,100436
2019-03-27T02:30:39.421Z,100439
2019-03-27T02:32:53.092Z,100440
2019-03-27T02:35:07.067Z,100429
2019-03-27T02:37:21.385Z,100426
2019-03-27T02:39:35.266Z,100429
2019-03-27T02:41:49.986Z,100430
2019-03-27T02:44:06.914Z,100436
2019-03-27T02:46:24.794Z,100436
2019-03-27T02:48:34.566Z,100431
2019-03-27T02:50:48.539Z,100433
2019-03-27T02:53:03.861Z,100427
2019-03-27T02:55:18.036Z,100418
2019-03-27T02:57:33.641Z,100413
2019-03-27T02:59:48.150Z,100414
2019-03-27T03:02:02.233Z,100419
2019-03-27T03:04:16.267Z,100415
2019-03-27T03:06:30.297Z,100413
2019-03-27T03:08:44.982Z,100408
2019-03-27T03:11:01.637Z,100403
2019-03-27T03:13:17.094Z,100402
2019-03-27T03:15:30.205Z,100404
2019-03-27T03:17:45.603Z,100412
2019-03-27T03:19:58.402Z,100407
2019-03-27T03:22:13.420Z,100412
2019-03-27T03:24:27.477Z,100408
2019-03-27T03:26:41.451Z,100407
2019-03-27T03:29:05.306Z,100412
2019-03-27T03:31:20.333Z,100409
2019-03-27T03:33:41.938Z,100411
2019-03-27T03:36:07.522Z,100419
2019-03-27T03:38:23.129Z,100420
2019-03-27T03:40:38.261Z,100424
2019-03-27T03:42:52.207Z,100427
2019-03-27T03:45:06.225Z,100425
2019-03-27T03:47:28.624Z,100429
2019-03-27T03:49:42.538Z,100430
2019-03-27T03:51:56.410Z,100428
2019-03-27T03:54:10.238Z,100434
2019-03-27T03:56:24.046Z,100438
2019-03-27T03:58:37.847Z,100436
2019-03-27T04:00:51.691Z,100443
2019-03-27T04:03:05.551Z,100441
2019-03-27T04:05:19.341Z,100444
2019-03-27T04:07:34.144Z,100439
2019-03-27T04:09:48.143Z,100435
2019-03-27T04:12:01.931Z,100441
2019-03-27T04:14:15.845Z,100446
2019-03-27T04:16:29.560Z,100453
2019-03-27T04:18:43.350Z,100456
2019-03-27T04:20:57.181Z,100461
2019-03-27T04:23:10.980Z,100461
2019-03-27T04:25:24.871Z,100467
2019-03-27T04:27:39.815Z,100466
2019-03-27T04:29:54.653Z,100457
2019-03-27T04:32:08.482Z,100465
2019-03-27T04:34:22.265Z,100467
2019-03-27T04:36:36.084Z,100471
2019-03-27T04:38:49.910Z,100473
2019-03-27T04:41:03.714Z,100473
2019-03-27T04:43:17.582Z,100470
2019-03-27T04:45:31.425Z,100477
2019-03-27T04:47:45.280Z,100479
2019-03-27T04:49:59.105Z,100479
2019-03-27T04:52:13.000Z,100482
2019-03-27T04:54:27.224Z,100477
2019-03-27T04:56:40.916Z,100482
2019-03-27T04:58:54.881Z,100486
2019-03-27T05:01:08.782Z,100482
2019-03-27T05:03:22.753Z,100484
2019-03-27T05:05:36.654Z,100478
2019-03-27T05:07:50.575Z,100475
2019-03-27T05:10:04.504Z,100474
2019-03-27T05:12:18.426Z,100476
2019-03-27T05:14:32.292Z,100477
2019-03-27T05:16:46.208Z,100486
2019-03-27T05:19:00.078Z,100483
2019-03-27T05:21:14.000Z,100489
2019-03-27T05:23:27.905Z,100492
2019-03-27T05:25:41.868Z,100491
2019-03-27T05:27:55.771Z,100490
2019-03-27T05:30:09.711Z,100494
2019-03-27T05:32:23.650Z,100486
2019-03-27T05:34:37.558Z,100497
2019-03-27T05:36:51.480Z,100499
2019-03-27T05:39:05.830Z,100503
2019-03-27T05:41:19.724Z,100506
2019-03-27T05:43:33.775Z,100511
2019-03-27T05:45:47.674Z,100516
2019-03-27T05:48:01.611Z,100529
2019-03-27T05:50:15.467Z,100532
2019-03-27T05:52:29.290Z,100531
2019-03-27T05:54:43.066Z,100528
2019-03-27T05:56:56.853Z,100533
2019-03-27T05:59:10.696Z,100536
2019-03-27T06:01:24.583Z,100538
2019-03-27T06:03:38.490Z,100540
2019-03-27T06:05:52.560Z,100542
2019-03-27T06:08:06.398Z,100546
2019-03-27T06:10:20.260Z,100542
2019-03-27T06:12:34.121Z,100539
2019-03-27T06:14:48.079Z,100535
2019-03-27T06:17:02.006Z,100533
2019-03-27T06:19:15.879Z,100535
2019-03-27T06:21:29.832Z,100527
2019-03-27T06:23:43.729Z,100533
2019-03-27T06:25:57.686Z,100528
2019-03-27T06:28:11.623Z,100534
2019-03-27T06:30:25.619Z,100532
2019-03-27T06:32:39.529Z,100537
2019-03-27T06:34:53.473Z,100541
2019-03-27T06:37:07.335Z,100542
2019-03-27T06:39:21.274Z,100544
2019-03-27T06:41:35.130Z,100551
2019-03-27T06:43:48.977Z,100556
2019-03-27T06:46:02.919Z,100557
2019-03-27T06:48:25.947Z,100558
2019-03-27T06:50:30.759Z,100557
2019-03-27T06:52:44.619Z,100560
2019-03-27T06:54:58.550Z,100561
2019-03-27T06:57:12.435Z,100563
2019-03-27T06:59:26.292Z,100562
2019-03-27T07:01:40.128Z,100567
2019-03-27T07:03:53.932Z,100566
2019-03-27T07:06:08.793Z,100568
2019-03-27T07:08:22.642Z,100566
2019-03-27T07:10:36.546Z,100565
2019-03-27T07:12:50.416Z,100563
2019-03-27T07:14:06.286Z,100570
2019-03-27T07:16:20.179Z,100567
2019-03-27T07:18:39.736Z,100567
2019-03-27T07:20:47.766Z,100569
2019-03-27T07:23:01.502Z,100565
2019-03-27T07:25:15.325Z,100572
2019-03-27T07:27:29.223Z,100569
2019-03-27T07:29:44.023Z,100570
2019-03-27T07:31:57.971Z,100568
2019-03-27T07:34:11.718Z,100559
2019-03-27T07:36:25.622Z,100564
2019-03-27T07:38:39.529Z,100564
2019-03-27T07:40:53.332Z,100571
2019-03-27T07:43:07.214Z,100576
2019-03-27T07:45:21.089Z,100577
2019-03-27T07:47:34.948Z,100569
2019-03-27T07:49:48.810Z,100568
2019-03-27T07:52:02.569Z,100567
2019-03-27T07:54:16.335Z,100563
2019-03-27T07:56:30.105Z,100574
2019-03-27T07:58:43.939Z,100575
2019-03-27T08:00:58.682Z,100577
2019-03-27T08:03:12.426Z,100577
2019-03-27T08:05:26.225Z,100581
2019-03-27T08:07:39.999Z,100584
2019-03-27T08:09:53.870Z,100579
2019-03-27T08:12:07.725Z,100586
2019-03-27T08:14:22.482Z,100587
2019-03-27T08:16:43.450Z,100585
2019-03-27T08:19:07.178Z,100585
2019-03-27T08:21:11.149Z,100585
2019-03-27T08:23:25.043Z,100586
2019-03-27T08:25:38.896Z,100586
2019-03-27T08:27:52.808Z,100596
2019-03-27T08:30:06.587Z,100601
2019-03-27T08:32:20.483Z,100603
2019-03-27T08:34:34.247Z,100592
2019-03-27T08:36:48.050Z,100594
2019-03-27T08:39:01.834Z,100588
2019-03-27T08:41:15.682Z,100587
2019-03-27T08:43:29.489Z,100591
2019-03-27T08:45:43.332Z,100591
2019-03-27T08:47:57.131Z,100594
2019-03-27T08:50:10.985Z,100601
2019-03-27T08:52:25.437Z,100600
2019-03-27T08:54:39.197Z,100607
2019-03-27T08:56:53.372Z,100598
2019-03-27T08:59:07.084Z,100605
2019-03-27T09:01:21.083Z,100612
2019-03-27T09:03:34.782Z,100615
2019-03-27T09:05:48.660Z,100616
2019-03-27T09:08:02.529Z,100612
2019-03-27T09:10:16.290Z,100613
2019-03-27T09:12:30.126Z,100619
2019-03-27T09:14:44.131Z,100610
2019-03-27T09:16:57.995Z,100613
2019-03-27T09:19:19.704Z,100610
2019-03-27T09:20:35.041Z,100616
2019-03-27T09:22:49.492Z,100616
2019-03-27T09:25:03.438Z,100617
2019-03-27T09:27:17.347Z,100610
2019-03-27T09:29:31.195Z,100605
2019-03-27T09:31:45.524Z,100604
2019-03-27T09:33:59.092Z,100607
2019-03-27T09:36:12.974Z,100612
2019-03-27T09:38:34.793Z,100613
2019-03-27T09:40:49.106Z,100617
2019-03-27T09:43:03.014Z,100617
2019-03-27T09:45:16.903Z,100620
2019-03-27T09:47:38.243Z,100619
2019-03-27T09:50:00.259Z,100619
2019-03-27T09:52:14.706Z,100624
2019-03-27T09:54:28.585Z,100628
2019-03-27T09:56:42.503Z,100625
2019-03-27T10:01:36.062Z,100625
2019-03-27T10:03:50.203Z,100623
2019-03-27T10:06:04.125Z,100625
2019-03-27T10:08:18.012Z,100624
2019-03-27T10:10:31.955Z,100621
2019-03-27T10:12:45.853Z,100624
2019-03-27T10:14:59.720Z,100629
2019-03-27T10:17:13.578Z,100629
2019-03-27T10:19:27.922Z,100632
2019-03-27T10:21:41.645Z,100627
2019-03-27T10:23:55.501Z,100622
2019-03-27T10:26:09.680Z,100629
2019-03-27T10:28:23.466Z,100632
2019-03-27T10:30:37.336Z,100629
2019-03-27T10:32:51.484Z,100628
2019-03-27T10:35:05.187Z,100635
2019-03-27T10:37:19.115Z,100638
2019-03-27T10:39:32.979Z,100636
2019-03-27T10:41:46.851Z,100637
2019-03-27T10:44:00.735Z,100634
2019-03-27T10:46:14.569Z,100635
2019-03-27T10:48:28.467Z,100639
2019-03-27T10:50:43.389Z,100640
2019-03-27T10:52:57.244Z,100640
2019-03-27T10:55:11.131Z,100635
2019-03-27T10:57:25.028Z,100629
2019-03-27T10:59:38.889Z,100633
2019-03-27T11:01:52.783Z,100621
2019-03-27T11:04:06.737Z,100626
2019-03-27T11:06:20.527Z,100627
2019-03-27T11:08:34.390Z,100627
2019-03-27T11:10:48.306Z,100633
2019-03-27T11:13:02.160Z,100631
2019-03-27T11:15:16.023Z,100627
2019-03-27T11:17:29.987Z,100629
2019-03-27T11:19:43.830Z,100624
2019-03-27T11:21:57.711Z,100622
2019-03-27T11:24:11.595Z,100627
2019-03-27T11:26:25.511Z,100622
2019-03-27T11:28:39.392Z,100621
2019-03-27T11:30:53.251Z,100622
2019-03-27T11:33:07.266Z,100615
2019-03-27T11:35:21.102Z,100614
2019-03-27T11:37:34.997Z,100614
2019-03-27T11:39:48.854Z,100614
2019-03-27T11:42:02.712Z,100615
2019-03-27T11:44:16.574Z,100613
2019-03-27T11:46:32.188Z,100621
2019-03-27T11:48:44.256Z,100618
2019-03-27T11:50:58.111Z,100617
2019-03-27T11:53:19.797Z,100619
2019-03-27T11:55:41.344Z,100616
2019-03-27T11:58:03.118Z,100623
2019-03-27T11:59:12.668Z,100620
2019-03-27T12:06:49.878Z,100621
2019-03-27T12:09:04.963Z,100618
2019-03-27T13:00:17.122Z,100577
2019-03-27T13:02:32.596Z,100575
2019-03-27T13:04:46.519Z,100577
2019-03-27T13:07:00.313Z,100574
2019-03-27T13:09:14.263Z,100576
2019-03-27T13:15:03.007Z,100583
2019-03-27T13:17:16.830Z,100587
2019-03-27T13:19:31.227Z,100589
2019-03-27T13:21:46.214Z,100589
2019-03-27T13:24:00.605Z,100594
2019-03-27T13:26:14.383Z,100592
2019-03-27T13:28:28.368Z,100593
2019-03-27T13:30:43.228Z,100598
2019-03-27T13:32:57.277Z,100595
2019-03-27T13:35:11.882Z,100594
2019-03-27T13:37:25.885Z,100594
2019-03-27T13:39:39.673Z,100595
2019-03-27T13:41:53.431Z,100598
2019-03-27T13:44:07.844Z,100600
2019-03-27T13:46:21.270Z,100597
2019-03-27T13:48:35.098Z,100600
2019-03-27T13:50:48.844Z,100589
2019-03-27T13:53:02.612Z,100592
2019-03-27T13:55:17.452Z,100586
2019-03-27T13:57:31.227Z,100589
2019-03-27T13:59:45.008Z,100590
2019-03-27T14:01:58.818Z,100582
2019-03-27T14:04:13.583Z,100579
2019-03-27T14:06:27.403Z,100578
2019-03-27T14:08:42.305Z,100580
2019-03-27T14:10:56.150Z,100578
2019-03-27T14:13:09.988Z,100582
2019-03-27T14:15:23.888Z,100583
2019-03-27T14:17:37.698Z,100586
2019-03-27T14:19:51.494Z,100587
2019-03-27T14:22:05.450Z,100589
2019-03-27T14:24:19.358Z,100591
2019-03-27T14:26:44.259Z,100593
2019-03-27T14:28:47.002Z,100598
2019-03-27T14:31:00.885Z,100598
2019-03-27T14:33:15.060Z,100588
2019-03-27T14:35:28.773Z,100584
2019-03-27T14:37:42.598Z,100588
2019-03-27T14:39:56.733Z,100588
2019-03-27T14:42:11.473Z,100586
2019-03-27T14:44:25.333Z,100582
2019-03-27T14:46:39.457Z,100582
2019-03-27T14:48:53.457Z,100585
2019-03-27T14:51:07.168Z,100586
2019-03-27T14:53:20.989Z,100586
2019-03-27T14:55:35.340Z,100586
2019-03-27T14:57:49.004Z,100584
2019-03-27T15:00:02.848Z,100577
2019-03-27T15:02:18.924Z,100575
2019-03-27T15:04:33.560Z,100575
2019-03-27T15:06:47.421Z,100577
2019-03-27T15:09:01.732Z,100581
2019-03-27T15:11:15.338Z,100579
2019-03-27T15:13:29.152Z,100577
2019-03-27T15:15:42.970Z,100575
2019-03-27T15:17:56.760Z,100574
2019-03-27T15:20:10.559Z,100573
2019-03-27T15:22:24.405Z,100565
2019-03-27T15:24:38.184Z,100566
2019-03-27T15:26:52.037Z,100566
2019-03-27T15:29:05.760Z,100571
2019-03-27T15:31:20.903Z,100575
2019-03-27T15:33:33.385Z,100577
2019-03-27T15:35:47.143Z,100581
2019-03-27T15:38:01.031Z,100576
2019-03-27T15:40:14.792Z,100573
2019-03-27T15:42:28.563Z,100578
2019-03-27T15:44:42.348Z,100570
2019-03-27T15:46:56.151Z,100575
2019-03-27T15:49:09.915Z,100568
2019-03-27T15:51:23.766Z,100571
2019-03-27T15:53:37.558Z,100568
2019-03-27T15:55:51.314Z,100561
2019-03-27T15:58:05.115Z,100561
2019-03-27T16:00:18.894Z,100564
2019-03-27T16:02:33.063Z,100569
2019-03-27T16:04:46.649Z,100566
2019-03-27T16:07:00.433Z,100575
2019-03-27T16:09:14.676Z,100563
2019-03-27T16:11:28.276Z,100567
2019-03-27T16:13:42.086Z,100564
2019-03-27T16:15:55.855Z,100566
2019-03-27T16:18:09.641Z,100566
2019-03-27T16:20:23.431Z,100567
2019-03-27T16:22:49.754Z,100561
2019-03-27T16:24:51.899Z,100560
2019-03-27T16:27:05.705Z,100566
2019-03-27T16:29:19.474Z,100562
2019-03-27T16:31:33.211Z,100565
2019-03-27T16:33:47.003Z,100565
2019-03-27T16:36:00.734Z,100563
2019-03-27T16:38:14.504Z,100571
2019-03-27T16:40:28.245Z,100575
2019-03-27T16:42:41.974Z,100576
2019-03-27T16:44:55.761Z,100578
2019-03-27T16:47:09.507Z,100580
2019-03-27T16:49:23.250Z,100589
2019-03-27T16:51:36.972Z,100582
2019-03-27T16:53:50.843Z,100579
2019-03-27T16:56:04.677Z,100580
2019-03-27T16:58:18.912Z,100580
2019-03-27T17:00:33.935Z,100589
2019-03-27T17:02:48.153Z,100597
2019-03-27T17:05:02.031Z,100599
2019-03-27T17:07:16.936Z,100606
2019-03-27T17:09:30.714Z,100607
2019-03-27T17:11:44.505Z,100607
2019-03-27T17:13:58.257Z,100609
2019-03-27T17:16:12.048Z,100607
2019-03-27T17:18:28.077Z,100608
2019-03-27T17:20:39.609Z,100609
2019-03-27T17:22:53.363Z,100611
2019-03-27T17:25:08.131Z,100613
2019-03-27T17:27:21.909Z,100613
2019-03-27T17:29:35.728Z,100612
2019-03-27T17:31:49.543Z,100609
2019-03-27T17:34:03.276Z,100613
2019-03-27T17:36:17.019Z,100617
2019-03-27T17:38:30.812Z,100617
2019-03-27T17:40:44.553Z,100612
2019-03-27T17:42:58.294Z,100616
2019-03-27T17:45:12.087Z,100612
2019-03-27T17:47:25.845Z,100617
2019-03-27T17:49:39.611Z,100624
2019-03-27T17:51:53.396Z,100621
2019-03-27T17:54:19.817Z,100622
2019-03-27T17:56:21.831Z,100618
2019-03-27T17:58:35.613Z,100612
2019-03-27T18:00:49.417Z,100617
2019-03-27T18:03:03.198Z,100621
2019-03-27T18:05:17.046Z,100622
2019-03-27T18:07:30.874Z,100626
2019-03-27T18:09:44.734Z,100630
2019-03-27T18:11:58.618Z,100625
2019-03-27T18:14:12.449Z,100625
2019-03-27T18:16:26.344Z,100630
2019-03-27T18:18:40.206Z,100627
2019-03-27T18:20:54.082Z,100626
2019-03-27T18:23:07.918Z,100625
2019-03-27T18:25:21.798Z,100629
2019-03-27T18:27:35.608Z,100634
2019-03-27T18:29:59.502Z,100632
2019-03-27T18:32:14.065Z,100633
2019-03-27T18:34:28.040Z,100633
2019-03-27T18:36:42.040Z,100635
2019-03-27T18:38:56.107Z,100636
2019-03-27T18:41:10.166Z,100639
2019-03-27T18:43:24.269Z,100647
2019-03-27T18:45:38.304Z,100646
2019-03-27T18:47:52.460Z,100642
2019-03-27T18:50:06.436Z,100648
2019-03-27T18:52:20.317Z,100650
2019-03-27T18:54:34.383Z,100651
2019-03-27T18:56:48.350Z,100649
2019-03-27T18:59:02.319Z,100650
2019-03-27T19:01:16.294Z,100657
2019-03-27T19:03:30.109Z,100654
2019-03-27T19:05:44.104Z,100668
2019-03-27T19:07:57.938Z,100665
2019-03-27T19:10:11.927Z,100665
2019-03-27T19:12:27.069Z,100668
2019-03-27T19:14:40.983Z,100674
2019-03-27T19:16:54.872Z,100674
2019-03-27T19:19:09.217Z,100674
2019-03-27T19:21:23.268Z,100677
2019-03-27T19:23:37.129Z,100675
2019-03-27T19:25:51.328Z,100682
2019-03-27T19:28:05.200Z,100679
2019-03-27T19:30:19.066Z,100680
2019-03-27T19:32:32.990Z,100683
2019-03-27T19:34:47.120Z,100682
2019-03-27T19:37:01.221Z,100680
2019-03-27T19:39:15.014Z,100687
2019-03-27T19:41:28.898Z,100682
2019-03-27T19:43:43.781Z,100690
2019-03-27T19:45:57.750Z,100685
2019-03-27T19:48:11.537Z,100692
2019-03-27T19:50:25.579Z,100687
2019-03-27T19:52:39.446Z,100692
2019-03-27T19:54:53.289Z,100694
2019-03-27T19:57:07.239Z,100693
2019-03-27T19:59:21.223Z,100690
2019-03-27T20:01:35.033Z,100689
2019-03-27T20:03:48.931Z,100690
2019-03-27T20:06:02.823Z,100686
2019-03-27T20:08:16.610Z,100684
2019-03-27T20:10:30.440Z,100692
2019-03-27T20:12:44.420Z,100692
2019-03-27T20:15:10.992Z,100686
2019-03-27T20:17:13.316Z,100686
2019-03-27T20:19:27.163Z,100691
2019-03-27T20:21:41.218Z,100688
2019-03-27T20:23:55.009Z,100687
2019-03-27T20:26:08.759Z,100695
2019-03-27T20:28:22.540Z,100695
2019-03-27T20:30:36.336Z,100699
2019-03-27T20:32:50.116Z,100698
2019-03-27T20:35:03.883Z,100693
2019-03-27T20:37:17.675Z,100691
2019-03-27T20:39:31.414Z,100696
2019-03-27T20:41:46.154Z,100695
2019-03-27T20:43:59.970Z,100697
2019-03-27T20:46:24.270Z,100702
2019-03-27T20:48:28.456Z,100702
2019-03-27T20:50:43.229Z,100703
2019-03-27T20:52:57.013Z,100700
2019-03-27T20:55:10.832Z,100698
2019-03-27T20:57:25.591Z,100701
2019-03-27T20:59:39.380Z,100699
2019-03-27T21:01:53.156Z,100699
2019-03-27T21:04:06.961Z,100700
2019-03-27T21:06:20.726Z,100696
2019-03-27T21:08:34.529Z,100696
2019-03-27T21:10:48.375Z,100697
2019-03-27T21:13:02.138Z,100699
2019-03-27T21:15:15.909Z,100696
2019-03-27T21:17:29.689Z,100698
2019-03-27T21:19:43.470Z,100697
2019-03-27T21:21:58.214Z,100701
2019-03-27T21:24:11.989Z,100703
2019-03-27T21:26:25.746Z,100703
2019-03-27T21:28:39.522Z,100703
2019-03-27T21:30:53.345Z,100703
2019-03-27T21:33:07.085Z,100705
2019-03-27T21:35:20.834Z,100703
2019-03-27T21:37:34.593Z,100706
2019-03-27T21:39:48.714Z,100706
2019-03-27T21:42:02.325Z,100703
2019-03-27T21:44:16.130Z,100705
2019-03-27T21:46:30.413Z,100702
2019-03-27T21:48:43.963Z,100703
2019-03-27T21:50:57.725Z,100706
2019-03-27T21:53:11.851Z,100711
2019-03-27T21:55:25.448Z,100713
2019-03-27T21:57:40.162Z,100716
2019-03-27T21:59:54.292Z,100716
2019-03-27T22:02:07.895Z,100713
2019-03-27T22:04:21.668Z,100707
2019-03-27T22:06:35.941Z,100706
2019-03-27T22:08:49.579Z,100702
2019-03-27T22:11:03.360Z,100709
2019-03-27T22:13:18.587Z,100704
2019-03-27T22:15:32.174Z,100708
2019-03-27T22:17:46.115Z,100707
2019-03-27T22:19:59.734Z,100708
2019-03-27T22:22:13.465Z,100710
2019-03-27T22:24:28.247Z,100710
2019-03-27T22:26:41.996Z,100713
2019-03-27T22:28:55.744Z,100710
2019-03-27T22:31:09.529Z,100716
2019-03-27T22:33:23.295Z,100713
2019-03-27T22:35:37.062Z,100716
2019-03-27T22:37:50.846Z,100721
2019-03-27T22:40:04.574Z,100725
2019-03-27T22:42:18.362Z,100726
2019-03-27T22:44:32.156Z,100728
2019-03-27T22:46:45.916Z,100728
2019-03-27T22:48:59.673Z,100729
2019-03-27T22:51:13.482Z,100729
2019-03-27T22:53:27.236Z,100718
2019-03-27T22:55:49.350Z,100725
2019-03-27T22:57:54.753Z,100721
2019-03-27T23:00:08.495Z,100723
2019-03-27T23:02:22.269Z,100724
2019-03-27T23:04:36.077Z,100720
2019-03-27T23:06:49.838Z,100727
2019-03-27T23:09:03.585Z,100718
2019-03-27T23:11:17.387Z,100720
2019-03-27T23:13:31.135Z,100723
2019-03-27T23:15:44.896Z,100723
2019-03-27T23:17:58.715Z,100728
2019-03-27T23:20:12.432Z,100722
2019-03-27T23:22:26.209Z,100724
2019-03-27T23:24:40.014Z,100728
2019-03-27T23:26:54.759Z,100731
2019-03-27T23:29:08.523Z,100733
2019-03-27T23:31:22.305Z,100733
2019-03-27T23:33:36.125Z,100732
2019-03-27T23:35:49.882Z,100732
2019-03-27T23:38:03.678Z,100735
2019-03-27T23:40:17.423Z,100733
2019-03-27T23:42:31.191Z,100733
2019-03-27T23:44:44.979Z,100732
2019-03-27T23:46:58.737Z,100737
2019-03-27T23:49:12.495Z,100731
2019-03-27T23:51:26.278Z,100723
2019-03-27T23:53:40.043Z,100728
2019-03-27T23:55:53.793Z,100725
2019-03-27T23:58:08.566Z,100727
